Time;durP1;ratioP1;P1;durP2;ratioP2;P2;SDS_P1;SDS_P2;PMS_P1;PMS_P2;Temp;Humidity;BMP_temperature;BMP_pressure;BME280_temperature;BME280_humidity;BME280_pressure;Samples;Min_cycle;Max_cycle;Signal;HPM_P1;HPM_P2
2021/03/18 00:00:49;;;;;;;18.42;12.80;;;2.50;99.90;;;;;;5074638;28;20047;-76
2021/03/18 00:03:24;;;;;;;16.63;9.23;;;2.50;99.90;;;;;;5074768;28;20111;-76
2021/03/18 00:05:50;;;;;;;21.80;11.65;;;2.60;99.90;;;;;;5074365;28;20024;-75
2021/03/18 00:08:16;;;;;;;21.38;12.27;;;2.60;99.90;;;;;;5073203;28;20391;-76
2021/03/18 00:10:44;;;;;;;20.58;12.57;;;2.50;99.90;;;;;;5074437;28;20066;-76
2021/03/18 00:13:11;;;;;;;21.52;12.32;;;2.70;99.90;;;;;;5073287;28;20020;-76
2021/03/18 00:15:38;;;;;;;24.35;14.95;;;2.70;99.90;;;;;;5072961;28;20507;-76
2021/03/18 00:18:16;;;;;;;22.73;12.07;;;2.60;99.90;;;;;;5074329;28;20094;-76
2021/03/18 00:20:42;;;;;;;18.15;12.02;;;2.60;99.90;;;;;;5074192;28;20027;-76
2021/03/18 00:23:08;;;;;;;17.85;11.63;;;2.60;99.90;;;;;;5074271;28;20027;-76
2021/03/18 00:25:34;;;;;;;21.52;12.23;;;2.50;99.90;;;;;;5074003;28;20379;-76
2021/03/18 00:28:00;;;;;;;25.55;14.88;;;2.50;99.90;;;;;;5074046;28;20353;-76
2021/03/18 00:30:27;;;;;;;25.85;12.73;;;2.60;99.90;;;;;;5072822;28;20028;-76
2021/03/18 00:32:53;;;;;;;22.88;13.60;;;2.50;99.90;;;;;;5074199;28;20340;-76
2021/03/18 00:35:21;;;;;;;24.55;13.75;;;2.40;99.90;;;;;;5073781;28;20096;-76
2021/03/18 00:37:48;;;;;;;19.85;12.77;;;2.30;99.90;;;;;;5072798;28;20024;-76
2021/03/18 00:40:35;;;;;;;23.48;14.88;;;2.20;99.90;;;;;;5072765;28;20028;-76
2021/03/18 00:43:05;;;;;;;24.00;14.63;;;2.30;99.90;;;;;;5073858;28;20028;-76
2021/03/18 00:45:32;;;;;;;22.08;14.88;;;2.20;99.90;;;;;;5073573;28;20036;-76
2021/03/18 00:47:59;;;;;;;23.25;14.93;;;2.10;99.90;;;;;;5072339;28;20132;-76
2021/03/18 00:50:41;;;;;;;22.05;15.30;;;2.20;99.90;;;;;;5072515;28;20024;-76
2021/03/18 00:53:09;;;;;;;26.05;14.77;;;2.20;99.90;;;;;;5072499;28;20016;-76
2021/03/18 00:55:35;;;;;;;22.80;15.00;;;2.40;99.90;;;;;;5073505;28;20035;-75
2021/03/18 00:58:01;;;;;;;24.33;16.35;;;2.30;99.90;;;;;;5073467;28;20055;-76
2021/03/18 01:00:43;;;;;;;22.98;15.25;;;2.30;99.90;;;;;;5073435;28;20323;-76
2021/03/18 01:03:12;;;;;;;23.55;12.10;;;2.30;99.90;;;;;;5073561;28;20028;-76
2021/03/18 01:05:57;;;;;;;22.05;15.95;;;2.40;99.90;;;;;;5073182;28;20028;-76
2021/03/18 01:08:27;;;;;;;28.30;15.73;;;2.40;99.90;;;;;;5072092;28;20090;-76
2021/03/18 01:10:56;;;;;;;20.85;15.85;;;2.40;99.90;;;;;;5072035;28;20021;-76
2021/03/18 01:13:22;;;;;;;24.65;15.63;;;2.50;99.90;;;;;;5073327;28;20024;-75
2021/03/18 01:15:54;;;;;;;24.90;14.93;;;2.40;99.90;;;;;;5071736;28;20059;-76
2021/03/18 01:18:22;;;;;;;23.13;16.30;;;2.30;99.90;;;;;;5073183;28;20476;-76
2021/03/18 01:20:48;;;;;;;27.95;16.73;;;2.30;99.90;;;;;;5073074;28;20028;-75
2021/03/18 01:23:14;;;;;;;27.60;16.80;;;2.40;99.90;;;;;;5071939;28;20395;-76
2021/03/18 01:25:40;;;;;;;26.38;17.15;;;2.50;99.90;;;;;;5071722;28;20027;-76
2021/03/18 01:28:09;;;;;;;27.75;17.58;;;2.50;99.90;;;;;;5072975;28;20243;-77
2021/03/18 01:30:40;;;;;;;27.92;17.95;;;2.60;99.90;;;;;;5071838;28;20398;-76
2021/03/18 01:33:07;;;;;;;24.17;16.48;;;2.50;99.90;;;;;;5072849;28;20025;-76
2021/03/18 01:35:34;;;;;;;28.20;18.60;;;2.40;99.90;;;;;;5071400;28;20025;-76
2021/03/18 01:38:01;;;;;;;31.73;18.25;;;2.50;99.90;;;;;;5071576;28;20458;-76
2021/03/18 01:40:31;;;;;;;24.88;17.25;;;2.50;99.90;;;;;;5073083;28;20031;-76
2021/03/18 01:42:58;;;;;;;29.20;17.55;;;2.50;99.90;;;;;;5072792;28;20543;-76
2021/03/18 01:45:27;;;;;;;29.73;19.00;;;2.40;99.90;;;;;;5072550;28;20033;-76
2021/03/18 01:47:55;;;;;;;31.65;19.15;;;2.40;99.90;;;;;;5072457;28;20430;-75
2021/03/18 01:50:23;;;;;;;28.63;19.30;;;2.30;99.90;;;;;;5072584;28;20023;-76
2021/03/18 01:52:49;;;;;;;33.75;19.95;;;2.30;99.90;;;;;;5071334;28;20024;-75
2021/03/18 01:55:25;;;;;;;28.33;18.23;;;2.50;99.90;;;;;;5053915;28;20056;-75
2021/03/18 01:57:50;;;;;;;27.13;17.13;;;2.40;99.90;;;;;;5072382;28;20046;-76
2021/03/18 02:00:17;;;;;;;32.47;18.83;;;2.40;99.90;;;;;;5054334;28;20505;-76
2021/03/18 02:02:43;;;;;;;23.92;16.65;;;2.30;99.90;;;;;;5071121;28;20484;-76
2021/03/18 02:05:09;;;;;;;32.53;17.90;;;2.40;99.90;;;;;;5070768;28;20053;-76
2021/03/18 02:07:35;;;;;;;26.60;17.55;;;2.30;99.90;;;;;;5072226;28;20384;-76
2021/03/18 02:10:02;;;;;;;27.92;18.08;;;2.10;99.90;;;;;;5072285;28;20028;-76
2021/03/18 02:12:27;;;;;;;27.83;20.17;;;2.20;99.90;;;;;;5072275;28;20404;-76
2021/03/18 02:14:53;;;;;;;29.00;17.67;;;2.10;99.90;;;;;;5071782;28;20029;-76
2021/03/18 02:17:28;;;;;;;25.83;17.33;;;2.00;99.90;;;;;;5071089;28;20487;-76
2021/03/18 02:20:27;;;;;;;32.17;19.17;;;2.00;99.90;;;;;;5072175;28;20028;-76
2021/03/18 02:23:27;;;;;;;31.30;17.85;;;2.10;99.90;;;;;;5070875;28;20071;-75
2021/03/18 02:26:05;;;;;;;27.35;17.02;;;2.20;99.90;;;;;;5070557;28;20112;-75
2021/03/18 02:28:55;;;;;;;29.10;18.00;;;2.10;99.90;;;;;;5072004;28;20096;-75
2021/03/18 02:31:58;;;;;;;27.63;18.00;;;1.90;99.90;;;;;;5072025;28;20021;-74
2021/03/18 02:34:48;;;;;;;31.60;19.70;;;1.90;99.90;;;;;;5071978;28;20381;-75
2021/03/18 02:37:17;;;;;;;33.20;19.90;;;1.80;99.90;;;;;;5070623;28;20036;-74
2021/03/18 02:39:49;;;;;;;28.15;19.27;;;1.80;99.90;;;;;;5071793;28;20361;-74
2021/03/18 02:42:20;;;;;;;30.15;19.77;;;1.90;99.90;;;;;;5071959;28;20424;-74
2021/03/18 02:44:51;;;;;;;28.98;17.45;;;1.90;99.90;;;;;;5071716;28;20384;-74
2021/03/18 02:47:21;;;;;;;26.10;18.05;;;1.90;99.90;;;;;;5071824;28;20031;-75
2021/03/18 02:49:49;;;;;;;30.50;19.38;;;1.80;99.90;;;;;;5070481;28;20021;-75
2021/03/18 02:52:21;;;;;;;36.08;18.98;;;1.80;99.90;;;;;;5071811;28;20021;-75
2021/03/18 02:54:51;;;;;;;30.73;19.95;;;1.80;99.90;;;;;;5071630;28;20388;-75
2021/03/18 02:57:17;;;;;;;27.10;17.80;;;1.90;99.90;;;;;;5071723;28;20383;-75
2021/03/18 02:59:46;;;;;;;30.30;19.25;;;1.80;99.90;;;;;;5071666;28;20028;-75
2021/03/18 03:02:18;;;;;;;31.77;18.23;;;1.90;99.90;;;;;;5071724;28;20107;-75
2021/03/18 03:04:45;;;;;;;27.38;16.52;;;1.80;99.90;;;;;;5071533;28;20023;-75
2021/03/18 03:07:13;;;;;;;31.05;18.45;;;1.80;99.90;;;;;;5071370;28;20028;-74
2021/03/18 03:09:43;;;;;;;31.13;19.38;;;1.80;99.90;;;;;;5075589;28;20028;-74
2021/03/18 03:12:10;;;;;;;31.73;19.08;;;1.90;99.90;;;;;;5074490;28;20063;-74
2021/03/18 03:14:38;;;;;;;31.75;18.65;;;1.90;99.90;;;;;;5073854;28;20738;-74
2021/03/18 03:17:05;;;;;;;35.03;19.70;;;1.90;99.90;;;;;;5075500;28;20048;-74
2021/03/18 03:19:38;;;;;;;40.38;21.40;;;1.90;99.90;;;;;;5074101;28;20039;-74
2021/03/18 03:22:05;;;;;;;33.13;19.67;;;1.90;99.90;;;;;;5075459;28;20454;-74
2021/03/18 03:24:35;;;;;;;28.70;17.15;;;1.80;99.90;;;;;;5075208;28;20085;-74
2021/03/18 03:27:01;;;;;;;34.30;18.85;;;1.90;99.90;;;;;;5073832;28;20391;-75
2021/03/18 03:29:28;;;;;;;34.50;18.08;;;1.90;99.90;;;;;;5074134;28;20025;-74
2021/03/18 03:31:56;;;;;;;32.97;19.25;;;1.80;99.90;;;;;;5074003;28;20021;-75
2021/03/18 03:34:21;;;;;;;34.88;18.27;;;1.80;99.90;;;;;;5075140;28;20029;-75
2021/03/18 03:36:48;;;;;;;30.73;17.00;;;1.90;99.90;;;;;;5074986;28;20113;-74
2021/03/18 03:39:16;;;;;;;27.90;16.00;;;2.00;99.90;;;;;;5074928;28;20100;-74
2021/03/18 03:41:43;;;;;;;31.23;17.52;;;2.00;99.90;;;;;;5074950;28;20035;-74
2021/03/18 03:44:09;;;;;;;32.60;16.98;;;2.10;99.90;;;;;;5074999;28;20036;-74
2021/03/18 03:46:35;;;;;;;29.75;16.90;;;2.00;99.90;;;;;;5074629;28;20036;-75
2021/03/18 03:49:02;;;;;;;27.00;16.13;;;2.00;99.90;;;;;;5073588;28;20020;-74
2021/03/18 03:51:37;;;;;;;33.30;17.52;;;2.00;99.90;;;;;;5074875;28;20020;-74
2021/03/18 03:54:08;;;;;;;32.03;18.15;;;1.70;99.90;;;;;;5073413;28;20478;-75
2021/03/18 03:56:46;;;;;;;31.98;18.60;;;1.70;99.90;;;;;;5074701;28;20027;-75
2021/03/18 03:59:20;;;;;;;33.20;18.88;;;1.70;99.90;;;;;;5073507;28;20087;-75
2021/03/18 04:01:51;;;;;;;33.15;16.73;;;1.80;99.90;;;;;;5074693;28;20099;-74
2021/03/18 04:04:31;;;;;;;35.85;16.83;;;1.70;99.90;;;;;;5073310;28;20476;-74
2021/03/18 04:07:26;;;;;;;39.25;17.08;;;1.80;99.90;;;;;;5074498;28;20033;-75
2021/03/18 04:09:53;;;;;;;29.50;16.38;;;1.60;99.90;;;;;;5068881;28;20526;-74
2021/03/18 04:12:23;;;;;;;32.15;17.00;;;1.60;99.90;;;;;;5074450;28;20078;-74
2021/03/18 04:15:05;;;;;;;29.52;17.73;;;1.70;99.90;;;;;;5073781;28;20074;-74
2021/03/18 04:17:32;;;;;;;29.85;16.42;;;1.80;99.90;;;;;;5074192;28;20021;-75
2021/03/18 04:20:01;;;;;;;41.70;17.55;;;1.80;99.90;;;;;;5074234;28;20495;-75
2021/03/18 04:22:29;;;;;;;41.38;16.48;;;1.90;99.90;;;;;;5073049;28;20021;-74
2021/03/18 04:24:56;;;;;;;48.75;17.65;;;1.80;99.90;;;;;;5072890;28;20028;-75
2021/03/18 04:27:23;;;;;;;32.78;17.27;;;1.90;99.90;;;;;;5074145;28;20032;-74
2021/03/18 04:29:49;;;;;;;33.88;17.30;;;1.90;99.90;;;;;;5074003;28;20021;-75
2021/03/18 04:32:16;;;;;;;35.72;17.55;;;2.00;99.90;;;;;;5074380;28;20025;-73
2021/03/18 04:34:44;;;;;;;31.52;17.08;;;1.90;99.90;;;;;;5074508;28;20496;-73
2021/03/18 04:37:12;;;;;;;42.92;18.73;;;1.80;99.90;;;;;;5073116;28;20392;-74
2021/03/18 04:39:39;;;;;;;39.35;18.90;;;1.70;99.90;;;;;;5056309;28;20119;-74
2021/03/18 04:42:06;;;;;;;42.17;20.52;;;1.90;99.90;;;;;;5074225;28;20039;-74
2021/03/18 04:44:34;;;;;;;37.35;19.17;;;1.90;99.90;;;;;;5074131;28;20400;-73
2021/03/18 04:47:01;;;;;;;44.67;19.67;;;1.80;99.90;;;;;;5074104;28;20034;-74
2021/03/18 04:49:27;;;;;;;40.47;18.73;;;1.80;99.90;;;;;;5074046;28;20024;-74
2021/03/18 04:51:54;;;;;;;43.53;19.05;;;1.70;99.90;;;;;;5072849;28;20032;-74
2021/03/18 04:54:21;;;;;;;44.38;20.60;;;1.50;99.90;;;;;;5073946;28;20032;-73
2021/03/18 04:56:49;;;;;;;38.67;19.08;;;1.40;99.90;;;;;;5072681;28;20025;-74
2021/03/18 04:59:16;;;;;;;43.30;20.27;;;1.60;99.90;;;;;;5073867;28;20448;-74
2021/03/18 05:01:49;;;;;;;42.30;19.23;;;1.80;99.90;;;;;;5073886;28;20107;-74
2021/03/18 05:04:17;;;;;;;46.78;20.52;;;1.70;99.90;;;;;;5072602;28;20024;-74
2021/03/18 05:06:47;;;;;;;47.25;21.63;;;1.80;99.90;;;;;;5073734;28;20545;-74
2021/03/18 05:09:14;;;;;;;49.53;22.52;;;1.70;99.90;;;;;;5073645;28;20032;-73
2021/03/18 05:11:40;;;;;;;42.63;19.35;;;1.80;99.90;;;;;;5073615;28;20020;-74
2021/03/18 05:14:07;;;;;;;41.40;20.48;;;1.70;99.90;;;;;;5073386;28;20025;-73
2021/03/18 05:16:35;;;;;;;39.95;20.75;;;1.60;99.90;;;;;;5073554;28;20556;-74
2021/03/18 05:19:01;;;;;;;39.05;20.80;;;1.80;99.90;;;;;;5072305;28;20027;-74
2021/03/18 05:21:29;;;;;;;39.30;19.88;;;1.70;99.90;;;;;;5073528;28;20032;-73
2021/03/18 05:23:56;;;;;;;52.95;21.90;;;1.80;99.90;;;;;;5055482;28;20387;-74
2021/03/18 05:26:22;;;;;;;45.72;20.40;;;1.90;99.90;;;;;;5073305;28;20032;-75
2021/03/18 05:28:48;;;;;;;42.22;21.33;;;2.00;99.90;;;;;;5073214;28;20409;-74
2021/03/18 05:31:14;;;;;;;46.90;22.27;;;1.90;99.90;;;;;;5071269;28;20136;-74
2021/03/18 05:33:39;;;;;;;46.83;20.38;;;1.80;99.90;;;;;;5073192;28;20070;-74
2021/03/18 05:36:05;;;;;;;56.60;23.13;;;1.70;99.90;;;;;;5073199;28;20028;-74
2021/03/18 05:38:31;;;;;;;52.80;26.13;;;1.50;99.90;;;;;;5071813;28;20029;-74
2021/03/18 05:41:00;;;;;;;50.25;22.88;;;1.50;99.90;;;;;;5071800;28;20031;-74
2021/03/18 05:43:26;;;;;;;59.45;23.27;;;1.60;99.90;;;;;;5071717;28;20106;-74
2021/03/18 05:45:53;;;;;;;51.45;23.90;;;1.50;99.90;;;;;;5072639;28;20033;-74
2021/03/18 05:48:20;;;;;;;42.03;23.55;;;1.50;99.90;;;;;;5072845;28;20056;-74
2021/03/18 05:50:47;;;;;;;43.53;21.02;;;1.70;99.90;;;;;;5072901;28;20024;-74
2021/03/18 05:53:15;;;;;;;47.63;25.05;;;1.50;99.90;;;;;;5072798;28;20051;-74
2021/03/18 05:55:41;;;;;;;49.42;23.92;;;1.50;99.90;;;;;;5054796;28;20027;-74
2021/03/18 05:58:08;;;;;;;46.70;24.10;;;1.50;99.90;;;;;;5072742;28;20099;-74
2021/03/18 06:00:36;;;;;;;44.45;23.17;;;1.60;99.90;;;;;;5072727;28;20024;-74
2021/03/18 06:03:02;;;;;;;51.60;24.90;;;1.50;99.90;;;;;;5071421;28;20028;-74
2021/03/18 06:05:28;;;;;;;52.33;24.73;;;1.50;99.90;;;;;;5071287;28;20028;-74
2021/03/18 06:07:54;;;;;;;41.30;21.50;;;1.50;99.90;;;;;;5072561;28;20056;-74
2021/03/18 06:10:25;;;;;;;47.25;24.33;;;1.50;99.90;;;;;;5071008;28;20511;-74
2021/03/18 06:12:55;;;;;;;52.67;26.40;;;1.60;99.90;;;;;;5072171;28;20017;-74
2021/03/18 06:15:22;;;;;;;49.08;23.27;;;1.80;99.90;;;;;;5071088;28;20439;-74
2021/03/18 06:17:48;;;;;;;52.83;25.75;;;1.70;99.90;;;;;;5071908;28;20031;-74
2021/03/18 06:20:36;;;;;;;48.70;23.40;;;1.60;99.90;;;;;;5070942;28;20032;-74
2021/03/18 06:23:09;;;;;;;56.30;24.15;;;1.50;99.90;;;;;;5070466;28;20123;-73
2021/03/18 06:25:37;;;;;;;56.10;25.17;;;1.50;99.90;;;;;;5070569;28;20031;-74
2021/03/18 06:28:22;;;;;;;54.22;26.20;;;1.70;99.90;;;;;;5070466;28;20028;-74
2021/03/18 06:31:12;;;;;;;49.22;25.23;;;1.80;99.90;;;;;;5071952;28;20150;-74
2021/03/18 06:33:47;;;;;;;54.60;26.20;;;1.70;99.90;;;;;;5071723;28;20021;-74
2021/03/18 06:36:33;;;;;;;60.33;27.42;;;1.70;99.90;;;;;;5071939;28;20157;-74
2021/03/18 06:39:15;;;;;;;57.97;28.73;;;1.50;99.90;;;;;;5070330;28;20032;-74
2021/03/18 06:41:57;;;;;;;56.78;26.55;;;1.50;99.90;;;;;;5071493;28;20020;-74
2021/03/18 06:44:28;;;;;;;58.75;25.27;;;1.40;99.90;;;;;;5071552;28;20051;-74
2021/03/18 06:47:07;;;;;;;62.25;27.38;;;1.50;99.90;;;;;;5070318;28;20434;-74
2021/03/18 06:49:33;;;;;;;58.70;27.55;;;1.60;99.90;;;;;;5070845;28;20048;-74
2021/03/18 06:52:11;;;;;;;54.58;26.55;;;1.60;99.90;;;;;;5069938;28;20043;-74
2021/03/18 06:54:42;;;;;;;60.03;25.90;;;1.80;99.90;;;;;;5071754;28;20502;-74
2021/03/18 06:57:09;;;;;;;65.13;28.33;;;1.80;99.90;;;;;;5071494;28;20367;-74
2021/03/18 06:59:37;;;;;;;61.85;28.30;;;1.70;99.90;;;;;;5071565;28;20050;-74
2021/03/18 07:02:10;;;;;;;45.67;25.05;;;1.90;99.90;;;;;;5071635;28;20103;-74
2021/03/18 07:04:38;;;;;;;59.80;27.90;;;1.70;99.90;;;;;;5072034;28;20478;-74
2021/03/18 07:07:05;;;;;;;66.32;28.48;;;1.80;99.90;;;;;;5071256;28;20039;-74
2021/03/18 07:09:32;;;;;;;61.25;27.83;;;1.80;99.90;;;;;;5071727;28;20058;-74
2021/03/18 07:12:01;;;;;;;53.33;27.25;;;1.80;99.90;;;;;;5071464;28;20031;-73
2021/03/18 07:14:39;;;;;;;54.85;27.98;;;1.90;99.90;;;;;;5071188;28;20104;-73
2021/03/18 07:17:06;;;;;;;64.40;28.05;;;2.00;99.90;;;;;;5071346;28;20430;-73
2021/03/18 07:19:33;;;;;;;54.55;26.17;;;1.90;99.90;;;;;;5071115;28;20024;-73
2021/03/18 07:22:00;;;;;;;68.80;27.50;;;1.80;99.90;;;;;;5071295;28;20512;-72
2021/03/18 07:24:33;;;;;;;53.22;25.40;;;1.80;99.90;;;;;;5071125;28;20017;-73
2021/03/18 07:27:13;;;;;;;50.58;25.98;;;2.00;99.90;;;;;;5071016;28;20028;-73
2021/03/18 07:29:40;;;;;;;53.78;28.77;;;1.80;99.90;;;;;;5071047;28;20048;-73
2021/03/18 07:32:06;;;;;;;60.58;28.33;;;1.60;99.90;;;;;;5069695;28;20027;-73
2021/03/18 07:34:33;;;;;;;64.75;28.80;;;1.80;99.90;;;;;;5071366;28;20100;-74
2021/03/18 07:37:00;;;;;;;51.42;26.58;;;1.90;99.90;;;;;;5071323;28;20032;-74
2021/03/18 07:39:26;;;;;;;50.22;28.20;;;1.80;99.90;;;;;;5071371;28;20399;-73
2021/03/18 07:41:53;;;;;;;53.70;27.90;;;1.90;99.90;;;;;;5071082;28;20089;-74
2021/03/18 07:44:21;;;;;;;55.90;27.30;;;1.90;99.90;;;;;;5069936;28;20059;-74
2021/03/18 07:46:48;;;;;;;57.03;28.52;;;2.00;99.90;;;;;;5069731;28;20056;-74
2021/03/18 07:49:16;;;;;;;60.75;28.52;;;2.10;99.90;;;;;;5070939;28;20547;-74
2021/03/18 07:51:44;;;;;;;61.47;30.92;;;1.90;99.90;;;;;;5070894;28;20079;-74
2021/03/18 07:54:17;;;;;;;64.03;28.67;;;1.90;99.90;;;;;;5073588;28;20020;-74
2021/03/18 07:56:53;;;;;;;63.38;32.17;;;1.90;99.90;;;;;;5073605;28;20060;-73
2021/03/18 07:59:32;;;;;;;61.67;30.63;;;2.00;99.90;;;;;;5074785;28;20032;-73
2021/03/18 08:02:19;;;;;;;49.72;25.83;;;2.10;99.90;;;;;;5075193;28;20407;-74
2021/03/18 08:04:52;;;;;;;52.80;26.92;;;2.20;99.90;;;;;;5056453;28;20051;-74
2021/03/18 08:07:40;;;;;;;46.83;22.70;;;2.30;99.90;;;;;;5074739;28;20020;-73
2021/03/18 08:10:12;;;;;;;45.22;25.48;;;2.10;99.90;;;;;;5056478;28;20043;-73
2021/03/18 08:12:44;;;;;;;56.10;25.85;;;2.10;99.90;;;;;;5075502;28;20407;-74
2021/03/18 08:15:27;;;;;;;71.47;33.65;;;2.00;99.90;;;;;;5073537;28;20491;-74
2021/03/18 08:17:55;;;;;;;102.15;46.25;;;2.10;99.90;;;;;;5073732;28;20274;-74
2021/03/18 08:20:57;;;;;;;71.15;38.05;;;2.20;99.90;;;;;;5056696;28;20391;-74
2021/03/18 08:23:26;;;;;;;56.30;29.00;;;2.30;99.90;;;;;;5073361;28;20265;-73
2021/03/18 08:25:58;;;;;;;58.30;27.63;;;2.40;99.90;;;;;;5073144;28;20103;-74
2021/03/18 08:28:41;;;;;;;50.55;27.45;;;2.40;99.90;;;;;;5074617;28;20025;-73
2021/03/18 08:31:20;;;;;;;59.33;26.42;;;2.40;99.90;;;;;;5073118;28;20035;-74
2021/03/18 08:33:54;;;;;;;49.67;26.15;;;2.30;99.90;;;;;;5053200;28;20017;-73
2021/03/18 08:36:30;;;;;;;50.80;28.50;;;2.30;99.90;;;;;;5056978;28;20082;-73
2021/03/18 08:39:05;;;;;;;46.30;26.48;;;2.30;99.90;;;;;;5072800;28;20086;-74
2021/03/18 08:41:36;;;;;;;43.92;24.30;;;2.40;99.90;;;;;;5074178;28;20051;-73
2021/03/18 08:44:23;;;;;;;39.55;22.85;;;2.40;99.90;;;;;;5072713;28;20025;-73
2021/03/18 08:47:20;;;;;;;48.92;24.88;;;2.50;99.90;;;;;;5073913;28;20086;-73
2021/03/18 08:49:46;;;;;;;46.55;28.00;;;2.70;99.90;;;;;;5061153;28;20499;-73
2021/03/18 08:52:19;;;;;;;61.15;30.55;;;2.60;99.90;;;;;;5073628;28;20024;-73
2021/03/18 08:54:49;;;;;;;53.30;26.80;;;2.60;99.90;;;;;;5073104;28;20078;-74
2021/03/18 08:57:21;;;;;;;48.00;27.13;;;2.70;99.90;;;;;;5073081;28;20025;-73
2021/03/18 08:59:49;;;;;;;63.70;27.73;;;2.60;99.90;;;;;;5071823;28;20056;-74
2021/03/18 09:02:19;;;;;;;50.38;25.27;;;2.80;99.90;;;;;;5073064;28;20032;-73
2021/03/18 09:04:49;;;;;;;44.25;26.55;;;2.80;99.90;;;;;;5073651;28;20055;-74
2021/03/18 09:07:20;;;;;;;41.75;25.88;;;2.90;99.90;;;;;;5072181;28;20502;-73
2021/03/18 09:09:58;;;;;;;47.17;25.43;;;2.80;99.90;;;;;;5073959;28;20021;-73
2021/03/18 09:12:24;;;;;;;56.30;27.10;;;2.70;99.90;;;;;;5073592;28;20029;-74
2021/03/18 09:14:49;;;;;;;50.17;26.63;;;2.70;99.90;;;;;;5073523;28;20052;-74
2021/03/18 09:17:15;;;;;;;44.50;26.30;;;2.80;99.90;;;;;;5072251;28;20040;-74
2021/03/18 09:19:46;;;;;;;53.78;30.73;;;2.70;99.90;;;;;;5073451;28;20029;-74
2021/03/18 09:22:23;;;;;;;50.55;31.73;;;2.80;99.90;;;;;;5071995;28;20025;-74
2021/03/18 09:24:49;;;;;;;48.10;29.45;;;2.80;99.90;;;;;;5072248;28;20025;-73
2021/03/18 09:27:15;;;;;;;54.75;32.97;;;2.70;99.90;;;;;;5072839;28;20529;-74
2021/03/18 09:29:43;;;;;;;52.28;30.42;;;2.70;99.90;;;;;;5071598;28;20099;-73
2021/03/18 09:32:11;;;;;;;44.15;26.65;;;2.80;99.90;;;;;;5072971;28;20491;-73
2021/03/18 09:34:39;;;;;;;52.00;28.60;;;2.70;99.90;;;;;;5072477;28;20048;-73
2021/03/18 09:37:06;;;;;;;36.60;21.60;;;2.80;99.90;;;;;;5072589;28;20511;-73
2021/03/18 09:39:32;;;;;;;38.60;21.25;;;2.90;99.90;;;;;;5072365;28;20100;-73
2021/03/18 09:42:02;;;;;;;41.00;23.50;;;2.80;99.90;;;;;;5071494;28;20036;-73
2021/03/18 09:44:30;;;;;;;40.50;23.40;;;2.80;99.90;;;;;;5072578;28;20028;-73
2021/03/18 09:47:02;;;;;;;43.75;24.48;;;2.80;99.90;;;;;;5070761;28;20038;-73
2021/03/18 09:49:35;;;;;;;;;;;2.90;99.90;;;;;;5072530;28;20024;-73
2021/03/18 09:52:07;;;;;;;45.00;24.77;;;2.80;99.90;;;;;;5070752;28;20394;-73
2021/03/18 09:54:34;;;;;;;45.88;26.50;;;3.00;99.90;;;;;;5070749;28;20415;-73
2021/03/18 09:57:05;;;;;;;45.33;24.55;;;3.10;99.90;;;;;;5070612;28;20032;-73
2021/03/18 09:59:31;;;;;;;49.57;25.13;;;3.10;99.90;;;;;;5072196;28;20028;-73
2021/03/18 10:01:58;;;;;;;43.80;23.50;;;3.10;99.90;;;;;;5071521;28;20020;-73
2021/03/18 10:04:24;;;;;;;46.92;23.48;;;3.30;99.90;;;;;;5071830;28;20039;-72
2021/03/18 10:06:57;;;;;;;36.47;22.90;;;3.50;99.90;;;;;;5071098;28;20021;-73
2021/03/18 10:09:31;;;;;;;38.97;22.90;;;3.60;99.90;;;;;;5071154;28;20375;-72
2021/03/18 10:12:02;;;;;;;37.72;20.67;;;3.70;99.90;;;;;;5071270;28;20021;-72
2021/03/18 10:14:45;;;;;;;48.55;21.98;;;3.60;99.90;;;;;;5069566;28;20384;-72
2021/03/18 10:17:24;;;;;;;32.85;21.15;;;3.60;99.90;;;;;;5070765;28;20024;-72
2021/03/18 10:19:56;;;;;;;38.60;23.70;;;3.60;99.90;;;;;;5071386;28;20081;-72
2021/03/18 10:22:23;;;;;;;51.75;23.80;;;3.80;99.90;;;;;;5071834;28;20043;-71
2021/03/18 10:25:05;;;;;;;37.25;20.70;;;3.90;99.90;;;;;;5070454;28;20028;-72
2021/03/18 10:27:36;;;;;;;43.17;21.55;;;3.90;99.90;;;;;;5066141;28;20506;-72
2021/03/18 10:30:15;;;;;;;34.88;20.40;;;3.90;99.90;;;;;;5070356;28;20396;-73
2021/03/18 10:33:00;;;;;;;30.00;18.75;;;3.80;99.90;;;;;;5071707;28;20020;-73
2021/03/18 10:35:27;;;;;;;32.67;19.55;;;3.70;99.90;;;;;;5071545;28;20033;-73
2021/03/18 10:37:53;;;;;;;31.95;19.58;;;3.80;99.90;;;;;;5071858;28;20020;-73
2021/03/18 10:40:28;;;;;;;32.28;19.60;;;4.10;99.90;;;;;;5071519;28;20020;-73
2021/03/18 10:42:59;;;;;;;34.08;18.20;;;4.20;99.90;;;;;;5071398;28;20025;-73
2021/03/18 10:45:31;;;;;;;29.83;15.65;;;4.30;99.10;;;;;;5071475;28;20119;-73
2021/03/18 10:48:04;;;;;;;40.42;22.75;;;4.10;94.60;;;;;;5070045;28;20017;-74
2021/03/18 10:50:36;;;;;;;33.97;17.92;;;4.70;99.10;;;;;;5071297;28;20028;-73
2021/03/18 10:53:06;;;;;;;33.22;17.67;;;5.60;94.80;;;;;;5069708;28;20590;-73
2021/03/18 10:55:47;;;;;;;29.52;18.10;;;6.00;92.10;;;;;;5070232;28;20651;-73
2021/03/18 10:58:20;;;;;;;20.60;15.18;;;6.10;90.70;;;;;;5070848;28;20039;-73
2021/03/18 11:00:48;;;;;;;21.52;15.27;;;7.00;88.80;;;;;;5071357;28;20029;-73
2021/03/18 11:03:17;;;;;;;24.83;16.27;;;6.80;85.10;;;;;;5070218;28;20020;-74
2021/03/18 11:05:47;;;;;;;23.70;16.27;;;7.20;87.80;;;;;;5070941;28;20440;-73
2021/03/18 11:08:15;;;;;;;22.60;16.00;;;7.20;84.00;;;;;;5071503;28;20021;-73
2021/03/18 11:10:49;;;;;;;22.10;12.85;;;7.20;84.70;;;;;;5071169;28;20618;-73
2021/03/18 11:13:23;;;;;;;19.00;12.90;;;7.10;80.90;;;;;;5070143;28;20442;-73
2021/03/18 11:16:04;;;;;;;21.13;14.23;;;7.30;78.80;;;;;;5071444;28;20024;-73
2021/03/18 11:18:39;;;;;;;17.75;11.85;;;8.20;80.80;;;;;;5058071;28;20081;-73
2021/03/18 11:21:33;;;;;;;17.63;13.20;;;8.30;74.80;;;;;;5071256;28;20712;-73
2021/03/18 11:24:07;;;;;;;20.15;13.27;;;8.60;73.00;;;;;;5050939;28;20527;-73
2021/03/18 11:26:34;;;;;;;20.42;13.23;;;8.20;69.50;;;;;;5057309;28;20112;-72
2021/03/18 11:29:09;;;;;;;19.80;13.55;;;7.80;73.90;;;;;;5072440;28;20021;-73
2021/03/18 11:31:38;;;;;;;17.58;12.02;;;7.60;75.90;;;;;;5075095;28;20024;-73
2021/03/18 11:34:14;;;;;;;26.00;12.70;;;7.60;75.10;;;;;;5074634;28;20095;-72
2021/03/18 11:36:41;;;;;;;22.73;11.82;;;7.70;76.10;;;;;;5075301;28;20029;-72
2021/03/18 11:39:06;;;;;;;25.55;12.10;;;7.60;74.30;;;;;;5073583;28;20052;-72
2021/03/18 11:41:32;;;;;;;17.85;12.35;;;7.20;75.00;;;;;;5075024;28;20052;-73
2021/03/18 11:43:59;;;;;;;21.65;12.77;;;6.90;75.60;;;;;;5074690;28;20039;-73
2021/03/18 11:46:24;;;;;;;19.70;13.73;;;6.60;75.30;;;;;;5074756;28;20113;-73
2021/03/18 11:48:50;;;;;;;20.80;12.50;;;6.20;77.20;;;;;;5074622;28;20490;-73
2021/03/18 11:51:16;;;;;;;20.98;12.10;;;5.80;79.80;;;;;;5074680;28;20383;-73
2021/03/18 11:53:42;;;;;;;24.05;14.32;;;5.80;79.90;;;;;;5074542;28;20024;-73
2021/03/18 11:56:08;;;;;;;19.23;13.40;;;6.20;80.40;;;;;;5074437;28;20032;-72
2021/03/18 11:58:33;;;;;;;28.58;14.25;;;6.00;79.00;;;;;;5074591;28;20361;-73
2021/03/18 12:00:59;;;;;;;27.08;14.85;;;6.30;81.10;;;;;;5074277;28;20060;-73
2021/03/18 12:03:25;;;;;;;25.17;11.48;;;5.90;78.50;;;;;;5073248;28;20081;-73
2021/03/18 12:05:51;;;;;;;18.42;13.05;;;5.90;77.60;;;;;;5073042;28;20107;-72
2021/03/18 12:08:17;;;;;;;26.63;13.30;;;6.20;78.20;;;;;;5074592;28;20084;-72
2021/03/18 12:10:42;;;;;;;20.77;13.18;;;6.50;80.00;;;;;;5073275;28;20028;-72
2021/03/18 12:13:08;;;;;;;20.55;9.02;;;6.50;79.00;;;;;;5074143;28;20024;-73
2021/03/18 12:15:34;;;;;;;10.85;8.05;;;7.00;77.30;;;;;;5074228;28;20032;-73
2021/03/18 12:18:00;;;;;;;8.43;6.30;;;6.90;74.80;;;;;;5072952;28;20425;-73
2021/03/18 12:20:28;;;;;;;18.48;6.05;;;7.60;73.10;;;;;;5074174;28;20025;-73
2021/03/18 12:22:54;;;;;;;10.05;6.47;;;8.20;70.70;;;;;;5073951;28;20146;-73
2021/03/18 12:25:21;;;;;;;9.02;6.72;;;8.30;71.60;;;;;;5074088;28;20025;-74
2021/03/18 12:27:51;;;;;;;9.82;6.30;;;8.30;73.60;;;;;;5072860;28;20051;-73
2021/03/18 12:30:20;;;;;;;10.93;6.90;;;7.90;70.80;;;;;;5073989;28;20032;-73
2021/03/18 12:32:47;;;;;;;8.57;5.93;;;7.70;71.50;;;;;;5073967;28;20031;-73
2021/03/18 12:35:15;;;;;;;7.15;5.68;;;7.80;66.90;;;;;;5073767;28;20145;-73
2021/03/18 12:37:41;;;;;;;8.68;5.93;;;7.30;64.90;;;;;;5073987;28;20023;-73
2021/03/18 12:40:08;;;;;;;10.00;7.00;;;6.90;67.30;;;;;;5072107;28;20103;-73
2021/03/18 12:42:35;;;;;;;26.38;6.70;;;6.80;69.30;;;;;;5073989;28;20024;-73
2021/03/18 12:45:01;;;;;;;13.07;6.28;;;6.90;67.70;;;;;;5073740;28;20512;-75
2021/03/18 12:47:27;;;;;;;15.55;8.00;;;7.50;69.80;;;;;;5073717;28;20025;-72
2021/03/18 12:49:52;;;;;;;15.57;7.82;;;6.90;68.20;;;;;;5074153;28;20534;-72
2021/03/18 12:52:18;;;;;;;15.65;7.63;;;7.70;71.90;;;;;;5073585;28;20028;-73
2021/03/18 12:54:44;;;;;;;21.67;8.35;;;7.80;66.50;;;;;;5054415;28;20074;-73